TimeICT,TemperatureF,Dew PointF,Humidity,Sea Level PressureIn,VisibilityMPH,Wind Direction,Wind SpeedMPH,Gust SpeedMPH,PrecipitationIn,Events,Conditions,WindDirDegrees,DateUTC
12:00 AM,77.0,73.4,89,29.80,5.6,SSW,10.4,-,N/A,Rain,Light Rain,200,2013-05-26 17:00:00
12:30 AM,77.0,73.4,89,29.80,5.6,South,10.4,-,N/A,Rain,Light Rain,190,2013-05-26 17:30:00
1:00 AM,77,75,91,29.83,1,WSW,9.2,,,Rain-Thunderstorm,Thunderstorms and Rain,240,2013-05-26 18:00:00
1:00 AM,78.8,73.4,83,29.80,5.6,South,9.2,-,N/A,Rain,Light Rain,190,2013-05-26 18:00:00
1:30 AM,78.8,73.4,83,29.80,6.2,South,9.2,-,N/A,Rain,Light Rain,180,2013-05-26 18:30:00
2:00 AM,78.8,75.2,89,29.77,5.0,South,11.5,-,N/A,Rain,Light Rain,170,2013-05-26 19:00:00
2:30 AM,77.0,73.4,89,29.77,5.0,SSE,11.5,23.0,N/A,Rain,Light Rain,150,2013-05-26 19:30:00
3:00 AM,77.0,71.6,83,29.74,6.2,SSE,9.2,-,N/A,Rain,Light Rain,160,2013-05-26 20:00:00
3:30 AM,77.0,71.6,83,29.77,6.2,South,5.8,-,N/A,Rain,Light Rain,180,2013-05-26 20:30:00
4:00 AM,78.8,73.4,83,29.77,6.2,Calm,Calm,-,N/A,,Mostly Cloudy,0,2013-05-26 21:00:00
4:30 AM,78.8,73.4,83,29.77,6.2,WSW,2.3,-,N/A,,Mostly Cloudy,250,2013-05-26 21:30:00
5:00 AM,78.8,73.4,83,29.77,6.2,NNE,2.3,-,N/A,,Mostly Cloudy,20,2013-05-26 22:00:00
5:30 AM,78.8,73.4,83,29.80,6.2,North,4.6,-,N/A,,Mostly Cloudy,10,2013-05-26 22:30:00
6:00 AM,78.8,73.4,83,29.80,6.2,ENE,5.8,-,N/A,,Mostly Cloudy,60,2013-05-26 23:00:00
6:30 AM,80.6,73.4,79,29.80,6.2,ESE,8.1,-,N/A,,Mostly Cloudy,110,2013-05-26 23:30:00
7:00 AM,80,77,89,29.82,6,Calm,Calm,,,,Partly Cloudy,,2013-05-27 00:00:00
7:00 AM,80.6,75.2,84,29.83,6.2,ESE,3.5,-,N/A,,Mostly Cloudy,110,2013-05-27 00:00:00
7:30 AM,82.4,75.2,79,29.83,6.2,SE,4.6,-,N/A,,Mostly Cloudy,140,2013-05-27 00:30:00
8:00 AM,82.4,75.2,79,29.83,6.2,SSE,3.5,-,N/A,,Mostly Cloudy,150,2013-05-27 01:00:00
8:30 AM,84.2,77.0,79,29.83,6.2,Calm,Calm,-,N/A,,Mostly Cloudy,0,2013-05-27 01:30:00
9:00 AM,86.0,77.0,74,29.83,6.2,Variable,2.3,-,N/A,,Mostly Cloudy,0,2013-05-27 02:00:00
9:30 AM,87.8,77.0,70,29.83,6.2,South,4.6,-,N/A,,Mostly Cloudy,190,2013-05-27 02:30:00
10:00 AM,87.8,75.2,66,29.83,6.2,SSW,10.4,-,N/A,,Mostly Cloudy,210,2013-05-27 03:00:00
10:30 AM,89.6,73.4,59,29.80,6.2,SSW,6.9,-,N/A,,Mostly Cloudy,210,2013-05-27 03:30:00
11:00 AM,89.6,73.4,59,29.80,6.2,South,6.9,-,N/A,,Mostly Cloudy,180,2013-05-27 04:00:00
11:30 AM,91.4,73.4,55,29.80,6.2,SSE,5.8,-,N/A,,Mostly Cloudy,150,2013-05-27 04:30:00
12:00 PM,93.2,73.4,52,29.80,6.2,South,5.8,-,N/A,,Mostly Cloudy,190,2013-05-27 05:00:00
12:30 PM,93.2,73.4,52,29.77,6.2,South,8.1,-,N/A,,Mostly Cloudy,180,2013-05-27 05:30:00
1:00 PM,92,77,54,29.76,9,Calm,Calm,,,,Partly Cloudy,,2013-05-27 06:00:00
1:00 PM,93.2,73.4,52,29.77,6.2,South,9.2,-,N/A,,Mostly Cloudy,190,2013-05-27 06:00:00
1:30 PM,93.2,73.4,52,29.74,6.2,South,11.5,-,N/A,,Mostly Cloudy,190,2013-05-27 06:30:00
2:00 PM,93.2,73.4,52,29.74,6.2,South,12.7,-,N/A,,Mostly Cloudy,180,2013-05-27 07:00:00
2:30 PM,93.2,73.4,52,29.74,6.2,South,12.7,-,N/A,,Mostly Cloudy,170,2013-05-27 07:30:00
3:00 PM,93.2,71.6,49,29.71,6.2,South,10.4,-,N/A,,Mostly Cloudy,180,2013-05-27 08:00:00
3:30 PM,93.2,71.6,49,29.71,6.2,South,10.4,-,N/A,,Mostly Cloudy,170,2013-05-27 08:30:00
4:00 PM,91.4,69.8,49,29.71,6.2,South,9.2,-,N/A,,Mostly Cloudy,180,2013-05-27 09:00:00
4:30 PM,93.2,68.0,44,29.68,6.2,South,9.2,-,N/A,,Scattered Clouds,170,2013-05-27 09:30:00
5:00 PM,91.4,69.8,49,29.68,6.2,South,9.2,-,N/A,,Scattered Clouds,190,2013-05-27 10:00:00
5:30 PM,91.4,71.6,52,29.68,6.2,South,9.2,-,N/A,,Scattered Clouds,190,2013-05-27 10:30:00
6:00 PM,89.6,71.6,55,29.71,6.2,South,9.2,-,N/A,,Scattered Clouds,190,2013-05-27 11:00:00
6:30 PM,87.8,71.6,58,29.71,6.2,South,9.2,-,N/A,,Scattered Clouds,190,2013-05-27 11:30:00
7:00 PM,88,76,61,29.71,8,SSW,3.5,,,,Clear,210,2013-05-27 12:00:00
7:00 PM,86.0,73.4,66,29.71,6.2,South,9.2,-,N/A,,Scattered Clouds,190,2013-05-27 12:00:00
7:30 PM,86.0,73.4,66,29.74,6.2,South,8.1,-,N/A,,Scattered Clouds,190,2013-05-27 12:30:00
8:00 PM,86.0,75.2,70,29.74,6.2,South,8.1,-,N/A,,Scattered Clouds,190,2013-05-27 13:00:00
8:30 PM,86.0,75.2,70,29.77,6.2,South,6.9,-,N/A,,Scattered Clouds,190,2013-05-27 13:30:00
9:00 PM,86.0,75.2,70,9999.90,6.2,SSW,11.5,-,N/A,,Scattered Clouds,210,2013-05-27 14:00:00
9:30 PM,86.0,75.2,70,29.80,6.2,SSW,11.5,-,N/A,,Mostly Cloudy,200,2013-05-27 14:30:00
10:00 PM,86.0,75.2,70,29.80,6.2,SW,10.4,-,N/A,,Mostly Cloudy,220,2013-05-27 15:00:00
10:30 PM,84.2,75.2,74,29.80,6.2,SSW,9.2,-,N/A,,Mostly Cloudy,200,2013-05-27 15:30:00
11:00 PM,86.0,75.2,70,29.80,6.2,South,8.1,-,N/A,,Mostly Cloudy,190,2013-05-27 16:00:00
11:30 PM,86.0,77.0,74,29.80,6.2,SW,12.7,-,N/A,,Mostly Cloudy,230,2013-05-27 16:30:00